Terminal Aerodrome Forecast
Issued by NWS

Home | Current Version | Previous Version | Text Only | Print | Product List | Glossary On
Versions: 1 2 3 4 5 6 7 8 9 10 11 12 13 14 15 16 17
000
FTUS43 KILX 021149
TAFDEC
TAF
KDEC 021149Z 0212/0312 06012KT P6SM SCT025 BKN050
      TEMPO 0212/0214 BKN025
     FM022000 04008KT P6SM SCT050
     FM030100 02005KT P6SM SCT250
     FM030300 04008KT P6SM OVC025=

USA.gov is the U.S. government's official web portal to all federal, state and local government web resources and services.